Terminal Aerodrome Forecast
Issued by NWS Louisville, KY

Home | Current Version | Previous Version | Text Only | Print | Product List | Glossary On
Versions: 1 2 3 4 5 6 7 8 9 10 11 12 13 14 15 16 17 18
000
FTUS43 KLMK 181723
TAFLEX
TAF
KLEX 181723Z 1818/1918 22008KT P6SM VCSH SCT070 BKN100
     FM182000 22008KT 5SM -SHRA BR OVC025
     FM182300 23005KT 3SM BR VCSH OVC015
      TEMPO 1823/1903 2SM BR OVC008
     FM190400 22005KT 4SM BR OVC011
     FM190900 23004KT 3SM BR OVC007=

USA.gov is the U.S. government's official web portal to all federal, state and local government web resources and services.